This is the latest recevied weather packets stored in our database for station/object M0UPS-13. If no packets are shown the sender has not sent any weather packets the latest 10 day(s).
| Time | Temp. | Humidity | Pressure | Rain* | Wind** | Luminosity | Snow |
|---|---|---|---|---|---|---|---|
| 1777714503 | 17.78° C | 63% | 1018 hPa | 0 mm | - | 599 W/m² | - |
| 1777714202 | 17.78° C | 63% | 1017.8 hPa | 0 mm | - | 607 W/m² | - |
| 1777713902 | 17.22° C | 64% | 1018 hPa | 0 mm | - | 606 W/m² | - |
| 1777713602 | 16.67° C | 69% | 1018 hPa | 0 mm | - | 590 W/m² | - |
| 1777713303 | 16.67° C | 67% | 1018 hPa | 0 mm | - | 578 W/m² | - |
| 1777713002 | 15.56° C | 71% | 1018 hPa | 0 mm | - | 582 W/m² | - |
| 1777712702 | 14.44° C | 75% | 1018.1 hPa | 0 mm | - | 619 W/m² | - |
| 1777712403 | 14.44° C | 75% | 1018.1 hPa | 0 mm | - | 213 W/m² | - |
| 1777712102 | 14.44° C | 75% | 1018.3 hPa | 0 mm | - | 234 W/m² | - |
| 1777711802 | 14.44° C | 74% | 1018.3 hPa | 0 mm | - | 234 W/m² | - |
| 1777711502 | 14.44° C | 74% | 1018.6 hPa | 0 mm | - | 230 W/m² | - |
| 1777711203 | 14.44° C | 76% | 1018.4 hPa | 0 mm | - | 327 W/m² | - |
| 1777710902 | 14.44° C | 73% | 1018.7 hPa | 0 mm | - | 326 W/m² | - |
| 1777710602 | 14.44° C | 74% | 1018.5 hPa | 0 mm | - | 312 W/m² | - |
| 1777710302 | 14.44° C | 75% | 1018.5 hPa | 0 mm | - | 357 W/m² | - |
| 1777710002 | 14.44° C | 74% | 1018.8 hPa | 0 mm | - | 452 W/m² | - |
| 1777709703 | 14.44° C | 74% | 1018.7 hPa | 0 mm | - | 468 W/m² | - |
| 1777709402 | 13.33° C | 78% | 1018.8 hPa | 0 mm | - | 421 W/m² | - |
| 1777709103 | 13.33° C | 80% | 1018.7 hPa | 0 mm | - | 350 W/m² | - |
| 1777708802 | 12.22° C | 82% | 1018.7 hPa | 0 mm | - | 415 W/m² | - |
| 1777708502 | 12.22° C | 81% | 1018.8 hPa | 0 mm | - | 217 W/m² | - |
| 1777708202 | 12.22° C | 82% | 1018.7 hPa | 0 mm | - | 245 W/m² | - |
| 1777707902 | 12.22° C | 82% | 1018.6 hPa | 0 mm | - | 185 W/m² | - |
| 1777707602 | 11.67° C | 86% | 1018.9 hPa | 0 mm | - | 408 W/m² | - |
| 1777707302 | 11.67° C | 85% | 1018.7 hPa | 0 mm | - | 181 W/m² | - |
* Rain latest hour (hover to see other rain measurements)
** Current wind speed in m/s (hover to see current wind gust speed)